createdAt,value
2022-12-22T00:01:29.883Z,7.93
2022-12-22T00:04:17.344Z,7.98
2022-12-22T00:07:04.683Z,7.99
2022-12-22T00:09:51.541Z,8.00
2022-12-22T00:12:39.328Z,8.03
2022-12-22T00:15:30.311Z,8.02
2022-12-22T00:18:18.078Z,8.02
2022-12-22T00:21:06.007Z,7.99
2022-12-22T00:23:53.405Z,8.02
2022-12-22T00:26:41.007Z,7.99
2022-12-22T00:29:30.675Z,7.99
2022-12-22T00:32:17.865Z,7.97
2022-12-22T00:35:05.577Z,7.95
2022-12-22T00:37:56.972Z,7.93
2022-12-22T00:40:47.602Z,7.90
2022-12-22T00:43:35.186Z,7.93
2022-12-22T00:46:23.516Z,7.89
2022-12-22T00:49:10.823Z,7.91
2022-12-22T00:51:58.600Z,7.93
2022-12-22T00:54:46.079Z,7.89
2022-12-22T00:57:39.088Z,7.93
2022-12-22T01:00:27.285Z,7.87
2022-12-22T01:03:14.769Z,7.89
2022-12-22T01:06:02.009Z,7.87
2022-12-22T01:08:49.491Z,7.90
2022-12-22T01:11:36.965Z,7.93
2022-12-22T01:14:30.079Z,7.96
2022-12-22T01:17:17.531Z,7.94
2022-12-22T01:20:05.164Z,7.96
2022-12-22T01:22:52.497Z,7.93
2022-12-22T01:25:39.219Z,7.92
2022-12-22T01:28:29.131Z,7.92
2022-12-22T01:31:16.634Z,7.99
2022-12-22T01:34:04.286Z,8.02
2022-12-22T01:36:51.355Z,7.99
2022-12-22T01:39:38.476Z,7.97
2022-12-22T01:42:28.014Z,7.96
2022-12-22T01:45:16.007Z,7.98
2022-12-22T01:48:03.496Z,8.01
2022-12-22T01:50:53.613Z,8.03
2022-12-22T01:53:44.007Z,8.04
2022-12-22T01:56:31.692Z,8.05
2022-12-22T01:59:21.141Z,8.09
2022-12-22T02:02:08.993Z,8.03
2022-12-22T02:04:58.969Z,8.00
2022-12-22T02:07:55.676Z,7.97
2022-12-22T02:11:03.707Z,7.95
2022-12-22T02:14:29.916Z,7.93
2022-12-22T02:17:35.235Z,7.90
2022-12-22T02:20:37.897Z,7.90
2022-12-22T02:23:39.807Z,7.88
2022-12-22T02:26:49.585Z,7.86
2022-12-22T02:29:38.709Z,7.83
2022-12-22T02:32:26.814Z,7.84
2022-12-22T02:35:14.424Z,7.88
2022-12-22T02:38:10.483Z,7.85
2022-12-22T02:41:13.252Z,7.85
2022-12-22T02:44:15.371Z,7.88
2022-12-22T02:47:11.869Z,7.89
2022-12-22T02:50:02.238Z,7.85
2022-12-22T02:52:54.284Z,7.89
2022-12-22T02:55:41.567Z,7.90
2022-12-22T02:58:31.212Z,7.88
2022-12-22T03:01:18.924Z,7.90
2022-12-22T03:04:07.131Z,7.87
2022-12-22T03:06:54.501Z,7.83
2022-12-22T03:09:41.775Z,7.86
2022-12-22T03:12:29.482Z,7.84
2022-12-22T03:15:16.630Z,7.78
2022-12-22T03:18:03.809Z,7.75
2022-12-22T03:20:51.260Z,7.72
2022-12-22T03:23:38.587Z,7.71
2022-12-22T03:26:08.209Z,7.66
2022-12-22T03:28:37.428Z,7.65
2022-12-22T03:31:07.819Z,7.67
2022-12-22T03:33:37.141Z,7.66
2022-12-22T03:36:07.965Z,7.68
2022-12-22T03:38:37.437Z,7.72
2022-12-22T03:41:07.019Z,7.68
2022-12-22T03:43:53.960Z,7.71
2022-12-22T03:46:32.323Z,7.71
2022-12-22T03:49:12.710Z,7.75
2022-12-22T03:51:47.600Z,7.76
2022-12-22T03:54:19.103Z,7.77
2022-12-22T03:56:48.684Z,7.75
2022-12-22T03:59:18.800Z,7.73
2022-12-22T04:01:53.631Z,7.74
2022-12-22T04:04:25.584Z,7.74
2022-12-22T04:06:55.320Z,7.75
2022-12-22T04:09:26.528Z,7.75
2022-12-22T04:12:14.661Z,7.72
2022-12-22T04:14:44.024Z,7.73
2022-12-22T04:17:13.261Z,7.75
2022-12-22T04:19:42.758Z,7.76
2022-12-22T04:22:11.973Z,7.80
2022-12-22T04:24:41.682Z,7.78
2022-12-22T04:27:10.877Z,7.83
2022-12-22T04:29:40.115Z,7.84
2022-12-22T04:32:09.485Z,7.87
2022-12-22T04:34:38.939Z,7.90
2022-12-22T04:37:16.863Z,7.90
2022-12-22T04:39:39.157Z,7.93
2022-12-22T04:42:08.617Z,8.01
2022-12-22T04:44:37.804Z,8.04
2022-12-22T04:47:07.107Z,8.00
2022-12-22T04:49:36.378Z,7.96
2022-12-22T04:52:05.847Z,7.95
2022-12-22T04:54:35.319Z,7.96
2022-12-22T04:57:04.624Z,8.07
2022-12-22T04:59:33.818Z,7.98
2022-12-22T05:02:03.330Z,7.91
2022-12-22T05:04:32.701Z,7.97
2022-12-22T05:07:01.945Z,7.92
2022-12-22T05:09:31.258Z,7.95
2022-12-22T05:12:00.727Z,7.98
2022-12-22T05:14:29.969Z,7.92
2022-12-22T05:16:59.256Z,7.98
2022-12-22T05:19:30.888Z,7.97
2022-12-22T05:21:59.518Z,7.92
2022-12-22T05:24:28.805Z,7.90
2022-12-22T05:26:58.025Z,7.85
2022-12-22T05:29:27.295Z,7.83
2022-12-22T05:31:56.630Z,7.80
2022-12-22T05:34:26.409Z,7.84
2022-12-22T05:36:55.657Z,7.82
2022-12-22T05:39:24.905Z,7.76
2022-12-22T05:41:54.103Z,7.74
2022-12-22T05:44:23.330Z,7.70
2022-12-22T05:46:53.482Z,7.69
2022-12-22T05:49:22.834Z,7.60
2022-12-22T05:51:53.923Z,7.59
2022-12-22T05:54:23.212Z,7.52
2022-12-22T05:56:52.496Z,7.52
2022-12-22T05:59:21.716Z,7.46
2022-12-22T06:01:51.159Z,7.46
2022-12-22T06:04:20.641Z,7.47
2022-12-22T06:06:50.133Z,7.43
2022-12-22T06:09:19.364Z,7.47
2022-12-22T06:11:48.889Z,7.46
2022-12-22T06:14:18.144Z,7.42
2022-12-22T06:16:47.345Z,7.35
2022-12-22T06:19:16.817Z,7.38
2022-12-22T06:21:46.034Z,7.36
2022-12-22T06:24:15.281Z,7.33
2022-12-22T06:26:44.479Z,7.31
2022-12-22T06:29:13.764Z,7.28
2022-12-22T06:31:43.013Z,7.26
2022-12-22T06:34:12.950Z,7.18
2022-12-22T06:36:42.519Z,7.24
2022-12-22T06:39:12.497Z,7.30
2022-12-22T06:41:59.931Z,7.33
2022-12-22T06:44:29.522Z,7.29
2022-12-22T06:46:58.876Z,7.31
2022-12-22T06:49:28.426Z,7.30
2022-12-22T06:51:57.661Z,7.27
2022-12-22T06:54:26.879Z,7.21
2022-12-22T06:56:56.464Z,7.17
2022-12-22T06:59:25.662Z,7.09
2022-12-22T07:01:55.112Z,7.10
2022-12-22T07:04:24.539Z,7.08
2022-12-22T07:06:54.159Z,7.02
2022-12-22T07:09:23.368Z,6.99
2022-12-22T07:11:52.588Z,7.04
2022-12-22T07:14:22.075Z,6.95
2022-12-22T07:16:51.370Z,6.85
2022-12-22T07:19:20.858Z,6.76
2022-12-22T07:21:51.429Z,6.63
2022-12-22T07:24:22.449Z,6.53
2022-12-22T07:26:51.783Z,6.50
2022-12-22T07:29:21.019Z,6.43
2022-12-22T07:31:50.360Z,6.30
2022-12-22T07:34:19.739Z,6.49
2022-12-22T07:36:48.983Z,6.35
2022-12-22T07:39:18.191Z,6.33
2022-12-22T07:42:05.315Z,6.40
2022-12-22T07:44:34.799Z,6.41
2022-12-22T07:47:04.494Z,6.44
2022-12-22T07:49:51.677Z,6.50
2022-12-22T07:52:21.157Z,6.42
2022-12-22T07:54:50.545Z,6.48
2022-12-22T07:57:19.792Z,6.41
2022-12-22T07:59:49.202Z,6.43
2022-12-22T08:02:18.870Z,6.42
2022-12-22T08:04:48.338Z,6.50
2022-12-22T08:07:17.949Z,6.54
2022-12-22T08:09:47.497Z,6.51
2022-12-22T08:12:17.105Z,6.57
2022-12-22T08:14:46.367Z,6.51
2022-12-22T08:17:15.773Z,6.50
2022-12-22T08:19:45.105Z,6.42
2022-12-22T08:22:14.691Z,6.43
2022-12-22T08:24:44.008Z,6.41
2022-12-22T08:27:19.571Z,6.40
2022-12-22T08:29:49.328Z,6.46
2022-12-22T08:32:18.903Z,6.40
2022-12-22T08:34:53.111Z,6.31
2022-12-22T08:37:24.580Z,6.26
2022-12-22T08:39:57.048Z,6.20
2022-12-22T08:42:27.002Z,6.14
2022-12-22T08:44:56.461Z,6.07
2022-12-22T08:47:26.254Z,6.06
2022-12-22T08:49:55.550Z,6.04
2022-12-22T08:52:25.035Z,5.99
2022-12-22T08:54:54.329Z,5.99
2022-12-22T08:57:24.128Z,5.98
2022-12-22T08:59:53.343Z,5.99
2022-12-22T09:02:23.158Z,5.87
2022-12-22T09:04:52.467Z,5.83
2022-12-22T09:07:21.875Z,5.87
2022-12-22T09:09:51.178Z,5.93
2022-12-22T09:12:20.744Z,6.05
2022-12-22T09:14:50.125Z,6.13
2022-12-22T09:17:19.439Z,6.14
2022-12-22T09:19:49.066Z,6.23
2022-12-22T09:22:25.065Z,6.24
2022-12-22T09:24:49.537Z,6.29
2022-12-22T09:27:18.961Z,6.36
2022-12-22T09:29:48.584Z,6.49
2022-12-22T09:32:18.198Z,6.38
2022-12-22T09:34:48.771Z,6.50
2022-12-22T09:37:18.868Z,6.55
2022-12-22T09:39:49.862Z,6.74
2022-12-22T09:42:21.508Z,6.69
2022-12-22T09:44:52.693Z,6.72
2022-12-22T09:47:37.868Z,6.79
2022-12-22T09:50:09.011Z,6.94
2022-12-22T09:52:49.388Z,7.06
2022-12-22T09:55:40.220Z,7.12
2022-12-22T09:58:12.656Z,7.21
2022-12-22T10:00:42.473Z,7.30
2022-12-22T10:03:31.549Z,7.26
2022-12-22T10:06:16.320Z,7.00
2022-12-22T10:08:45.600Z,6.57
2022-12-22T10:11:17.429Z,6.56
2022-12-22T10:13:47.370Z,6.62
2022-12-22T10:16:26.041Z,6.47
2022-12-22T10:19:10.572Z,6.53
2022-12-22T10:21:46.608Z,6.65
2022-12-22T10:24:30.006Z,6.80
2022-12-22T10:27:00.539Z,7.01
2022-12-22T10:29:30.213Z,7.23
2022-12-22T10:32:05.676Z,7.76
2022-12-22T10:34:35.098Z,8.72
2022-12-22T10:37:05.693Z,8.82
2022-12-22T10:39:36.305Z,8.38
2022-12-22T10:42:13.983Z,8.27
2022-12-22T10:44:48.473Z,8.15
2022-12-22T10:47:20.669Z,8.02
2022-12-22T10:52:30.428Z,7.85
2022-12-22T10:54:59.839Z,7.55
2022-12-22T10:57:32.045Z,7.41
2022-12-22T11:00:02.921Z,7.42
2022-12-22T11:02:40.518Z,7.39
2022-12-22T11:05:11.621Z,7.17
2022-12-22T11:07:43.360Z,7.09
2022-12-22T11:10:27.515Z,7.11
2022-12-22T11:13:24.101Z,6.97
2022-12-22T11:16:04.394Z,6.90
2022-12-22T11:18:45.960Z,6.77
2022-12-22T11:21:34.256Z,6.77
2022-12-22T11:24:07.078Z,6.73
2022-12-22T11:26:48.727Z,6.63
2022-12-22T11:29:24.388Z,6.65
2022-12-22T11:32:19.473Z,6.67
2022-12-22T11:35:01.108Z,6.60
2022-12-22T11:37:42.261Z,6.62
2022-12-22T11:40:17.910Z,6.68
2022-12-22T11:42:59.349Z,6.69
2022-12-22T11:45:49.691Z,6.60
2022-12-22T11:48:28.200Z,6.57
2022-12-22T11:51:10.477Z,6.55
2022-12-22T11:54:05.384Z,6.54
2022-12-22T11:56:37.981Z,6.58
2022-12-22T11:59:31.462Z,6.57
2022-12-22T12:02:20.700Z,6.60
2022-12-22T12:05:02.235Z,6.68
2022-12-22T12:07:38.260Z,6.83
2022-12-22T12:10:31.937Z,6.85
2022-12-22T12:13:25.747Z,6.91
2022-12-22T12:16:10.200Z,7.01
2022-12-22T12:18:57.984Z,7.05
2022-12-22T12:21:32.719Z,7.16
2022-12-22T12:24:24.642Z,7.19
2022-12-22T12:26:57.056Z,7.28
2022-12-22T12:29:28.937Z,7.24
2022-12-22T12:32:04.020Z,7.20
2022-12-22T12:34:37.606Z,7.23
2022-12-22T12:37:31.383Z,7.24
2022-12-22T12:40:22.211Z,7.30
2022-12-22T12:42:51.896Z,7.28
2022-12-22T12:45:36.036Z,7.35
2022-12-22T12:48:24.367Z,7.35
2022-12-22T12:50:58.199Z,7.44
2022-12-22T12:53:28.966Z,7.47
2022-12-22T12:56:10.244Z,7.47
2022-12-22T12:58:43.371Z,7.42
2022-12-22T13:01:16.292Z,7.36
2022-12-22T13:04:02.992Z,7.30
2022-12-22T13:06:50.610Z,7.26
2022-12-22T13:09:50.708Z,7.31
2022-12-22T13:12:13.688Z,7.24
2022-12-22T13:14:58.882Z,7.29
2022-12-22T13:17:37.229Z,7.30
2022-12-22T13:20:10.257Z,7.32
2022-12-22T13:22:40.710Z,7.33
2022-12-22T13:25:15.980Z,7.36
2022-12-22T13:27:45.979Z,7.31
2022-12-22T13:30:20.031Z,7.35
2022-12-22T13:32:50.745Z,7.37
2022-12-22T13:35:35.547Z,7.36
2022-12-22T13:37:57.834Z,7.48
2022-12-22T13:40:31.998Z,7.51
2022-12-22T13:43:08.045Z,7.47
2022-12-22T13:45:43.543Z,7.50
2022-12-22T13:48:19.411Z,7.51
2022-12-22T13:50:54.039Z,7.57
2022-12-22T13:56:15.572Z,7.52
2022-12-22T13:58:46.188Z,7.51
2022-12-22T14:01:19.256Z,7.47
2022-12-22T14:04:00.993Z,7.42
2022-12-22T14:06:38.094Z,7.41
2022-12-22T14:09:23.165Z,7.37
2022-12-22T14:12:04.887Z,7.31
2022-12-22T14:14:39.141Z,7.30
2022-12-22T14:17:29.963Z,7.28
2022-12-22T14:20:01.703Z,7.28
2022-12-22T14:22:36.774Z,7.31
2022-12-22T14:25:09.302Z,7.26
2022-12-22T14:27:39.173Z,7.29
2022-12-22T14:30:19.815Z,7.30
2022-12-22T14:32:55.155Z,7.30
2022-12-22T14:35:26.310Z,7.31
2022-12-22T14:37:58.965Z,7.31
2022-12-22T14:40:38.287Z,7.30
2022-12-22T14:43:19.613Z,7.25
2022-12-22T14:45:51.483Z,7.22
2022-12-22T14:48:29.177Z,7.23
2022-12-22T14:50:59.072Z,7.18
2022-12-22T14:53:37.556Z,7.18
2022-12-22T14:56:10.668Z,7.17
2022-12-22T14:58:42.770Z,7.12
2022-12-22T15:01:28.308Z,7.14
2022-12-22T15:04:06.929Z,7.18
2022-12-22T15:06:40.170Z,7.14
2022-12-22T15:09:33.339Z,7.11
2022-12-22T15:11:59.294Z,7.11
2022-12-22T15:14:36.667Z,7.12
2022-12-22T15:17:02.125Z,7.08
2022-12-22T15:19:34.230Z,7.06
2022-12-22T15:22:03.770Z,7.09
2022-12-22T15:24:33.675Z,7.11
2022-12-22T15:27:03.140Z,7.12
2022-12-22T15:29:32.575Z,7.11
2022-12-22T15:32:02.353Z,7.13
2022-12-22T15:34:33.226Z,7.11
2022-12-22T15:37:02.576Z,7.12
2022-12-22T15:39:31.793Z,7.13
2022-12-22T15:42:01.605Z,7.13
2022-12-22T15:44:36.813Z,7.09
2022-12-22T15:47:01.904Z,7.10
2022-12-22T15:49:31.528Z,7.13
2022-12-22T15:52:02.691Z,7.16
2022-12-22T15:54:34.217Z,7.15
2022-12-22T15:57:03.452Z,7.12
2022-12-22T15:59:32.719Z,7.12
2022-12-22T16:02:02.745Z,7.11
2022-12-22T16:04:32.086Z,7.12
2022-12-22T16:07:01.444Z,7.15
2022-12-22T16:09:35.807Z,7.17
2022-12-22T16:12:11.313Z,7.18
2022-12-22T16:14:46.588Z,7.17
2022-12-22T16:17:24.138Z,7.20
2022-12-22T16:19:53.848Z,7.23
2022-12-22T16:22:31.986Z,7.23
2022-12-22T16:25:03.624Z,7.23
2022-12-22T16:27:33.204Z,7.28
2022-12-22T16:30:02.442Z,7.29
2022-12-22T16:32:32.968Z,7.30
2022-12-22T16:35:16.306Z,7.29
2022-12-22T16:37:46.541Z,7.31
2022-12-22T16:40:17.755Z,7.35
2022-12-22T16:45:49.775Z,7.35
2022-12-22T16:48:25.094Z,7.38
2022-12-22T16:50:54.351Z,7.43
2022-12-22T16:53:23.594Z,7.48
2022-12-22T16:55:52.994Z,7.49
2022-12-22T16:58:22.857Z,7.54
2022-12-22T17:00:52.438Z,7.59
2022-12-22T17:03:26.643Z,7.66
2022-12-22T17:05:59.590Z,7.66
2022-12-22T17:08:35.129Z,7.74
2022-12-22T17:11:11.397Z,7.81
2022-12-22T17:13:41.199Z,7.85
2022-12-22T17:16:22.327Z,7.90
2022-12-22T17:18:51.942Z,7.98
2022-12-22T17:21:22.764Z,8.07
2022-12-22T17:23:54.404Z,8.13
2022-12-22T17:26:25.798Z,8.14
2022-12-22T17:28:55.149Z,8.20
2022-12-22T17:31:24.667Z,8.16
2022-12-22T17:33:54.456Z,8.20
2022-12-22T17:36:29.557Z,8.18
2022-12-22T17:38:59.352Z,8.24
2022-12-22T17:41:29.448Z,8.31
2022-12-22T17:43:59.048Z,8.25
2022-12-22T17:46:29.433Z,8.31
2022-12-22T17:48:59.365Z,8.36
2022-12-22T17:51:29.348Z,8.42
2022-12-22T17:53:59.246Z,8.43
2022-12-22T17:56:29.413Z,8.49
2022-12-22T17:58:58.973Z,8.51
2022-12-22T18:01:31.945Z,8.50
2022-12-22T18:04:01.835Z,8.49
2022-12-22T18:06:34.222Z,8.46
2022-12-22T18:09:04.975Z,8.55
2022-12-22T18:11:34.678Z,8.58
2022-12-22T18:14:05.460Z,8.59
2022-12-22T18:16:34.983Z,8.62
2022-12-22T18:19:05.437Z,8.64
2022-12-22T18:21:34.952Z,8.69
2022-12-22T18:24:04.938Z,8.74
2022-12-22T18:26:34.296Z,8.72
2022-12-22T18:29:04.260Z,8.67
2022-12-22T18:31:34.319Z,8.78
2022-12-22T18:34:04.142Z,8.81
2022-12-22T18:36:34.409Z,8.87
2022-12-22T18:39:05.698Z,8.86
2022-12-22T18:41:35.659Z,8.88
2022-12-22T18:44:05.032Z,8.87
2022-12-22T18:46:34.560Z,8.89
2022-12-22T18:49:06.010Z,8.82
2022-12-22T18:51:34.795Z,8.89
2022-12-22T18:54:04.353Z,8.91
2022-12-22T18:56:33.692Z,8.97
2022-12-22T18:59:03.512Z,9.00
2022-12-22T19:01:32.860Z,9.02
2022-12-22T19:04:02.807Z,9.05
2022-12-22T19:06:32.206Z,9.06
2022-12-22T19:09:01.467Z,9.02
2022-12-22T19:11:31.849Z,9.04
2022-12-22T19:14:01.205Z,9.05
2022-12-22T19:16:30.764Z,9.07
2022-12-22T19:19:01.646Z,9.10
2022-12-22T19:21:31.345Z,9.12
2022-12-22T19:24:00.864Z,9.15
2022-12-22T19:26:30.339Z,9.19
2022-12-22T19:29:01.429Z,9.16
2022-12-22T19:31:33.680Z,9.11
2022-12-22T19:34:05.689Z,9.16
2022-12-22T19:36:35.235Z,9.13
2022-12-22T19:39:06.071Z,9.10
2022-12-22T19:41:38.667Z,9.12
2022-12-22T19:44:17.364Z,9.13
2022-12-22T19:46:47.636Z,9.17
2022-12-22T19:49:18.690Z,9.18
2022-12-22T19:51:48.071Z,9.14
2022-12-22T19:54:19.815Z,9.16
2022-12-22T19:56:51.897Z,9.15
2022-12-22T19:59:39.847Z,9.10
2022-12-22T20:02:24.517Z,9.09
2022-12-22T20:04:55.212Z,9.08
2022-12-22T20:07:26.565Z,9.11
2022-12-22T20:09:56.054Z,9.09
2022-12-22T20:12:28.435Z,9.01
2022-12-22T20:14:58.175Z,8.98
2022-12-22T20:17:27.533Z,9.02
2022-12-22T20:19:57.067Z,9.08
2022-12-22T20:22:26.720Z,9.08
2022-12-22T20:24:56.229Z,9.08
2022-12-22T20:27:31.589Z,9.04
2022-12-22T20:30:01.426Z,9.08
2022-12-22T20:32:30.722Z,9.07
2022-12-22T20:34:59.946Z,9.11
2022-12-22T20:37:29.732Z,9.10
2022-12-22T20:39:58.998Z,9.11
2022-12-22T20:42:28.491Z,9.10
2022-12-22T20:45:02.440Z,9.06
2022-12-22T20:47:29.228Z,9.09
2022-12-22T20:49:58.419Z,9.14
2022-12-22T20:52:28.101Z,9.18
2022-12-22T20:54:57.540Z,9.21
2022-12-22T20:57:27.749Z,9.14
2022-12-22T20:59:57.077Z,9.14
2022-12-22T21:02:30.559Z,9.11
2022-12-22T21:05:00.035Z,9.18
2022-12-22T21:07:29.750Z,9.26
2022-12-22T21:09:59.259Z,9.23
2022-12-22T21:12:28.572Z,9.24
2022-12-22T21:14:58.279Z,9.22
2022-12-22T21:17:27.564Z,9.11
2022-12-22T21:19:57.112Z,9.20
2022-12-22T21:22:26.366Z,9.15
2022-12-22T21:24:55.627Z,9.12
2022-12-22T21:27:25.055Z,9.09
2022-12-22T21:29:54.615Z,9.06
2022-12-22T21:32:24.092Z,9.01
2022-12-22T21:34:53.439Z,9.04
2022-12-22T21:37:22.847Z,9.01
2022-12-22T21:39:52.344Z,8.97
2022-12-22T21:42:21.654Z,8.99
2022-12-22T21:44:51.510Z,9.01
2022-12-22T21:47:21.448Z,8.98
2022-12-22T21:49:51.094Z,8.96
2022-12-22T21:52:20.710Z,8.97
2022-12-22T21:54:50.154Z,9.00
2022-12-22T21:57:19.504Z,9.00
2022-12-22T21:59:50.237Z,9.01
2022-12-22T22:02:20.518Z,9.03
2022-12-22T22:04:54.669Z,9.00
2022-12-22T22:07:21.087Z,9.00
2022-12-22T22:09:50.608Z,8.98
2022-12-22T22:12:37.457Z,9.01
2022-12-22T22:15:08.397Z,9.01
2022-12-22T22:17:38.657Z,9.03
2022-12-22T22:20:09.695Z,9.01
2022-12-22T22:22:39.126Z,9.02
2022-12-22T22:25:09.518Z,9.01
2022-12-22T22:27:44.261Z,8.96
2022-12-22T22:30:13.685Z,8.99
2022-12-22T22:32:43.858Z,8.96
2022-12-22T22:35:13.464Z,8.97
2022-12-22T22:37:45.318Z,8.95
2022-12-22T22:40:16.337Z,8.96
2022-12-22T22:42:45.780Z,8.98
2022-12-22T22:45:19.077Z,8.95
2022-12-22T22:47:48.269Z,8.95
2022-12-22T22:50:18.951Z,8.92
2022-12-22T22:52:48.509Z,8.92
2022-12-22T22:55:18.885Z,8.88
2022-12-22T22:57:48.387Z,8.89
2022-12-22T23:00:19.342Z,8.90
2022-12-22T23:02:48.924Z,8.92
2022-12-22T23:05:22.736Z,8.89
2022-12-22T23:07:49.381Z,8.90
2022-12-22T23:10:18.890Z,8.91
2022-12-22T23:12:48.361Z,8.89
2022-12-22T23:15:17.675Z,8.87
2022-12-22T23:17:46.893Z,8.86
2022-12-22T23:20:16.159Z,8.82
2022-12-22T23:22:45.546Z,8.86
2022-12-22T23:25:14.774Z,8.84
2022-12-22T23:27:44.159Z,8.84
2022-12-22T23:30:14.155Z,8.79
2022-12-22T23:32:43.942Z,8.79
2022-12-22T23:35:13.157Z,8.78
2022-12-22T23:37:42.476Z,8.81
2022-12-22T23:42:43.741Z,8.76
2022-12-22T23:45:13.357Z,8.76
2022-12-22T23:47:42.787Z,8.77
2022-12-22T23:50:14.316Z,8.75
2022-12-22T23:52:48.908Z,8.76
2022-12-22T23:55:15.407Z,8.76
2022-12-22T23:57:45.012Z,8.73
